Terminal Aerodrome Forecast
Issued by NWS

Home | Current Version | Previous Version | Text Only | Print | Product List | Glossary On
Versions: 1 2 3 4 5 6 7 8 9 10 11 12 13 14 15 16 17 18 19 20 21 22 23 24 25
000
FTUS45 KBOU 211720
TAFBJC
TAF
KBJC 211720Z 2118/2218 28025G35KT P6SM FEW080 SCT120
     FM212200 25018G30KT P6SM FEW140 SCT220
     FM220200 25015G25KT P6SM SCT140 BKN220
     FM220900 26025G35KT P6SM FEW140 SCT220
     FM221500 27020G30KT P6SM FEW140 SCT220=

USA.gov is the U.S. government's official web portal to all federal, state and local government web resources and services.